createdAt,value
2022-12-03T00:02:24.804Z,24.50
2022-12-03T00:10:47.858Z,20.10
2022-12-03T00:19:10.774Z,21.70
2022-12-03T00:27:33.714Z,20.20
2022-12-03T00:35:56.678Z,20.40
2022-12-03T00:44:19.715Z,25.50
2022-12-03T00:52:42.681Z,18.50
2022-12-03T01:01:05.810Z,19.20
2022-12-03T01:09:28.853Z,20.20
2022-12-03T01:17:54.443Z,20.00
2022-12-03T01:26:17.532Z,24.00
2022-12-03T01:34:40.467Z,18.40
2022-12-03T01:43:03.569Z,19.10
2022-12-03T01:51:26.755Z,18.50
2022-12-03T01:59:50.524Z,20.80
2022-12-03T02:08:34.749Z,22.80
2022-12-03T02:16:57.677Z,17.00
2022-12-03T02:25:27.463Z,19.40
2022-12-03T02:42:32.657Z,19.20
2022-12-03T02:50:59.379Z,23.20
2022-12-03T02:59:22.668Z,18.90
2022-12-03T03:07:46.637Z,18.70
2022-12-03T03:16:10.437Z,19.50
2022-12-03T03:24:33.600Z,18.50
2022-12-03T03:32:56.755Z,22.50
2022-12-03T03:41:21.582Z,18.80
2022-12-03T03:49:44.830Z,17.80
2022-12-03T03:58:08.012Z,19.20
2022-12-03T04:06:31.028Z,17.40
2022-12-03T04:14:54.145Z,20.60
2022-12-03T04:23:17.343Z,17.90
2022-12-03T04:31:58.939Z,19.10
2022-12-03T04:40:40.644Z,16.80
2022-12-03T04:49:03.677Z,21.90
2022-12-03T04:57:26.539Z,17.90
2022-12-03T05:05:49.493Z,18.90
2022-12-03T05:14:13.079Z,21.50
2022-12-03T05:22:36.130Z,23.90
2022-12-03T05:30:59.161Z,18.80
2022-12-03T05:39:22.227Z,22.30
2022-12-03T05:47:45.169Z,19.10
2022-12-03T05:56:08.166Z,24.30
2022-12-03T06:04:31.136Z,20.50
2022-12-03T06:12:54.195Z,24.00
2022-12-03T06:21:17.108Z,23.20
2022-12-03T06:29:40.028Z,25.00
2022-12-03T06:38:03.173Z,20.80
2022-12-03T06:46:26.193Z,22.30
2022-12-03T06:54:49.689Z,23.00
2022-12-03T07:03:12.677Z,26.10
2022-12-03T07:11:40.611Z,22.40
2022-12-03T07:20:04.997Z,28.50
2022-12-03T07:28:28.455Z,27.40
2022-12-03T07:36:51.407Z,29.70
2022-12-03T07:45:14.400Z,29.90
2022-12-03T07:53:37.484Z,26.00
2022-12-03T08:02:00.425Z,23.50
2022-12-03T08:10:25.752Z,25.10
2022-12-03T08:18:50.389Z,23.60
2022-12-03T08:27:19.579Z,24.60
2022-12-03T08:35:50.125Z,23.10
2022-12-03T08:44:29.650Z,24.90
2022-12-03T08:52:53.172Z,24.60
2022-12-03T09:01:29.235Z,23.00
2022-12-03T09:09:52.840Z,23.30
2022-12-03T09:18:15.962Z,22.50
2022-12-03T09:26:39.029Z,27.60
2022-12-03T09:35:02.253Z,21.20
2022-12-03T09:43:49.465Z,24.40
2022-12-03T09:52:22.581Z,23.60
2022-12-03T10:00:52.322Z,24.20
2022-12-03T10:17:41.130Z,24.40
2022-12-03T10:26:04.109Z,29.50
2022-12-03T10:34:39.038Z,25.10
2022-12-03T10:43:28.888Z,23.80
2022-12-03T10:51:55.591Z,25.40
2022-12-03T11:00:20.025Z,29.50
2022-12-03T11:08:54.764Z,27.80
2022-12-03T11:17:42.384Z,25.20
2022-12-03T11:26:05.515Z,26.70
2022-12-03T11:34:34.331Z,30.60
2022-12-03T11:42:58.813Z,28.20
2022-12-03T11:51:24.898Z,28.20
2022-12-03T12:00:05.629Z,30.40
2022-12-03T12:08:37.193Z,27.70
2022-12-03T12:17:03.508Z,31.40
2022-12-03T12:25:30.842Z,35.70
2022-12-03T12:33:53.695Z,33.20
2022-12-03T12:42:29.421Z,33.80
2022-12-03T12:50:59.595Z,41.00
2022-12-03T12:59:24.485Z,30.40
2022-12-03T13:07:48.088Z,31.90
2022-12-03T13:16:31.556Z,33.20
2022-12-03T13:24:58.781Z,37.60
2022-12-03T13:33:26.610Z,41.20
2022-12-03T13:42:08.299Z,37.70
2022-12-03T13:50:44.872Z,40.10
2022-12-03T13:59:09.048Z,48.70
2022-12-03T14:07:31.918Z,43.60
2022-12-03T14:15:55.388Z,46.10
2022-12-03T14:24:18.362Z,40.20
2022-12-03T14:32:41.340Z,40.10
2022-12-03T14:41:04.379Z,41.50
2022-12-03T14:49:28.653Z,40.10
2022-12-03T14:57:51.686Z,43.00
2022-12-03T15:06:14.663Z,39.20
2022-12-03T15:14:37.529Z,38.90
2022-12-03T15:23:00.489Z,42.30
2022-12-03T15:31:23.646Z,39.80
2022-12-03T15:39:48.672Z,41.50
2022-12-03T15:48:13.680Z,39.10
2022-12-03T15:56:37.745Z,36.60
2022-12-03T16:05:02.909Z,41.20
2022-12-03T16:13:25.752Z,39.20
2022-12-03T16:21:48.718Z,44.00
2022-12-03T16:30:12.422Z,37.70
2022-12-03T16:38:35.475Z,44.50
2022-12-03T16:47:00.578Z,46.60
2022-12-03T16:55:23.741Z,59.50
2022-12-03T17:03:46.822Z,67.60
2022-12-03T17:12:09.706Z,53.50
2022-12-03T17:20:34.436Z,50.90
2022-12-03T17:28:57.802Z,46.80
2022-12-03T17:37:20.752Z,43.60
2022-12-03T17:45:44.436Z,38.20
2022-12-03T17:54:07.302Z,61.20
2022-12-03T18:02:30.324Z,47.40
2022-12-03T18:10:53.329Z,52.20
2022-12-03T18:19:16.385Z,49.80
2022-12-03T18:27:39.548Z,47.00
2022-12-03T18:36:02.728Z,47.40
2022-12-03T18:44:26.095Z,43.40
2022-12-03T18:52:48.946Z,51.10
2022-12-03T19:01:16.284Z,57.10
2022-12-03T19:09:40.397Z,50.90
2022-12-03T19:18:03.959Z,49.70
2022-12-03T19:26:26.855Z,55.20
2022-12-03T19:34:50.055Z,45.50
2022-12-03T19:43:12.995Z,48.30
2022-12-03T19:51:36.409Z,46.90
2022-12-03T19:59:59.350Z,47.40
2022-12-03T20:08:22.297Z,42.30
2022-12-03T20:16:46.171Z,43.20
2022-12-03T20:25:10.668Z,32.80
2022-12-03T20:33:33.568Z,33.60
2022-12-03T20:41:56.532Z,31.80
2022-12-03T20:50:19.406Z,35.60
2022-12-03T20:58:42.350Z,30.90
2022-12-03T21:07:05.234Z,35.90
2022-12-03T21:15:28.407Z,31.50
2022-12-03T21:23:51.510Z,31.30
2022-12-03T21:32:14.462Z,28.60
2022-12-03T21:40:37.519Z,29.70
2022-12-03T21:49:01.498Z,28.00
2022-12-03T21:57:24.436Z,27.50
2022-12-03T22:05:47.454Z,27.70
2022-12-03T22:14:10.587Z,25.20
2022-12-03T22:22:33.591Z,25.50
2022-12-03T22:30:56.947Z,28.00
2022-12-03T22:39:19.858Z,28.70
2022-12-03T22:47:43.594Z,26.40
2022-12-03T22:56:06.776Z,27.30
2022-12-03T23:04:29.699Z,27.50
2022-12-03T23:12:52.573Z,25.70
2022-12-03T23:21:17.818Z,22.40
2022-12-03T23:29:40.642Z,24.50
2022-12-03T23:38:03.556Z,23.00
2022-12-03T23:46:27.639Z,23.40
2022-12-03T23:54:50.652Z,23.10
